Time;durP1;ratioP1;P1;durP2;ratioP2;P2;SDS_P1;SDS_P2;PMS_P1;PMS_P2;Temp;Humidity;BMP_temperature;BMP_pressure;BME280_temperature;BME280_humidity;BME280_pressure;Samples;Min_cycle;Max_cycle;Signal;HPM_P1;HPM_P2
2022/06/10 00:00:29;;;;;;;3.05;0.80;;;14.60;85.00;;;;;;2092461;28;20045;-90
2022/06/10 00:01:48;;;;;;;3.05;1.00;;;14.60;85.10;;;;;;2109799;28;20035;-90
2022/06/10 00:03:10;;;;;;;2.97;0.90;;;14.60;85.10;;;;;;2107072;28;20028;-90
2022/06/10 00:04:32;;;;;;;2.40;0.80;;;14.60;85.10;;;;;;2108864;28;20119;-90
2022/06/10 00:05:54;;;;;;;3.20;1.10;;;14.60;85.10;;;;;;2095422;28;20476;-90
2022/06/10 00:07:14;;;;;;;2.65;0.80;;;14.60;85.20;;;;;;2109626;28;20036;-89
2022/06/10 00:08:40;;;;;;;2.67;0.93;;;14.50;85.20;;;;;;2108554;28;20083;-89
2022/06/10 00:09:59;;;;;;;3.45;0.90;;;14.50;85.30;;;;;;2113169;28;20413;-90
2022/06/10 00:11:18;;;;;;;2.83;0.90;;;14.50;85.30;;;;;;2103774;28;20048;-90
2022/06/10 00:12:37;;;;;;;2.55;0.90;;;14.50;85.40;;;;;;2096902;28;20053;-90
2022/06/10 00:13:57;;;;;;;3.65;0.93;;;14.50;85.60;;;;;;2110472;28;20051;-90
2022/06/10 00:15:17;;;;;;;6.72;1.13;;;14.40;85.70;;;;;;2105563;28;20020;-90
2022/06/10 00:16:37;;;;;;;2.72;0.90;;;14.40;85.90;;;;;;2110791;28;20075;-90
2022/06/10 00:17:56;;;;;;;3.33;0.95;;;14.30;86.00;;;;;;2104247;28;20051;-91
2022/06/10 00:19:16;;;;;;;2.97;0.80;;;14.30;86.10;;;;;;2103053;28;20453;-90
2022/06/10 00:20:36;;;;;;;2.88;0.90;;;14.30;86.20;;;;;;2116621;27;20482;-90
2022/06/10 00:21:56;;;;;;;1.95;1.00;;;14.30;86.40;;;;;;2111649;28;20039;-89
2022/06/10 00:23:15;;;;;;;3.08;1.08;;;14.30;86.50;;;;;;2103148;28;20502;-90
2022/06/10 00:24:35;;;;;;;3.00;0.90;;;14.20;86.60;;;;;;2100789;28;20044;-90
2022/06/10 00:25:54;;;;;;;4.10;0.80;;;14.20;87.30;;;;;;2108519;27;20043;-90
2022/06/10 00:27:14;;;;;;;3.85;0.95;;;14.20;86.80;;;;;;2111363;28;20052;-90
2022/06/10 00:28:33;;;;;;;2.05;0.80;;;14.20;86.80;;;;;;2102816;28;20032;-90
2022/06/10 00:29:53;;;;;;;1.85;0.70;;;14.20;86.80;;;;;;2095594;28;20126;-90
2022/06/10 00:31:14;;;;;;;2.65;0.80;;;14.20;86.90;;;;;;2093847;28;20040;-89
2022/06/10 00:32:33;;;;;;;4.32;1.00;;;14.20;87.00;;;;;;2108654;28;20425;-90
2022/06/10 00:33:53;;;;;;;2.85;1.00;;;14.20;87.00;;;;;;2095440;28;20462;-89
2022/06/10 00:35:13;;;;;;;3.53;1.00;;;14.20;87.00;;;;;;2104171;28;20479;-90
2022/06/10 00:36:35;;;;;;;1.67;0.80;;;14.20;87.10;;;;;;2103704;28;20506;-89
2022/06/10 00:37:58;;;;;;;3.53;0.93;;;14.10;87.10;;;;;;2092965;28;20044;-90
2022/06/10 00:39:17;;;;;;;2.40;0.82;;;14.20;87.30;;;;;;2103900;28;20056;-89
2022/06/10 00:40:41;;;;;;;1.83;0.82;;;14.20;87.20;;;;;;2102896;28;20028;-89
2022/06/10 00:42:03;;;;;;;1.77;0.90;;;14.10;87.30;;;;;;2101886;28;20510;-89
2022/06/10 00:43:25;;;;;;;2.95;0.90;;;14.10;87.40;;;;;;2109433;28;20065;-90
2022/06/10 00:44:52;;;;;;;2.75;0.90;;;14.10;87.50;;;;;;2104331;28;20115;-90
2022/06/10 00:46:22;;;;;;;3.25;0.80;;;14.10;87.60;;;;;;2104581;28;20067;-90
2022/06/10 00:47:42;;;;;;;1.87;0.80;;;14.10;87.70;;;;;;2111705;28;20027;-90
2022/06/10 00:49:12;;;;;;;4.50;1.17;;;14.10;87.80;;;;;;2097535;28;20764;-90
2022/06/10 00:50:38;;;;;;;;;;;14.10;87.90;;;;;;2109817;28;20043;-90
2022/06/10 00:51:58;;;;;;;3.17;0.90;;;14.00;87.80;;;;;;2107253;28;19911;-90
2022/06/10 00:53:23;;;;;;;4.18;0.90;;;14.00;87.80;;;;;;2096986;28;20091;-90
2022/06/10 00:54:45;;;;;;;2.92;0.88;;;14.00;87.90;;;;;;2102308;28;20041;-89
2022/06/10 00:56:11;;;;;;;2.97;0.90;;;14.00;88.00;;;;;;2097823;28;20041;-90
2022/06/10 00:57:35;;;;;;;3.50;1.08;;;13.90;88.10;;;;;;2103548;28;20032;-90
2022/06/10 00:59:10;;;;;;;2.72;0.90;;;13.90;88.20;;;;;;2108426;28;20044;-90
2022/06/10 01:00:30;;;;;;;3.53;1.00;;;13.90;88.30;;;;;;2108767;28;20036;-89
2022/06/10 01:01:57;;;;;;;2.83;1.15;;;13.90;88.40;;;;;;2094750;28;20048;-89
2022/06/10 01:03:18;;;;;;;3.72;1.00;;;13.90;88.50;;;;;;2101710;28;20036;-91
2022/06/10 01:04:42;;;;;;;2.97;0.90;;;13.90;88.60;;;;;;2096014;28;20052;-91
2022/06/10 01:06:01;;;;;;;3.72;0.90;;;13.90;88.70;;;;;;2107518;28;20040;-91
2022/06/10 01:07:26;;;;;;;4.13;1.10;;;13.90;88.80;;;;;;2109825;28;20036;-91
2022/06/10 01:08:46;;;;;;;2.95;0.90;;;13.90;88.90;;;;;;2104733;28;20044;-91
2022/06/10 01:10:12;;;;;;;2.15;0.85;;;13.80;88.90;;;;;;2088004;28;20045;-91
2022/06/10 01:12:02;;;;;;;3.90;1.05;;;13.80;89.00;;;;;;2102815;28;20409;-91
2022/06/10 01:13:42;;;;;;;4.07;1.00;;;13.80;89.10;;;;;;2118343;28;20035;-91
2022/06/10 01:15:22;;;;;;;2.42;0.85;;;13.80;89.10;;;;;;2107394;28;20040;-91
2022/06/10 01:16:55;;;;;;;5.85;0.90;;;13.80;89.10;;;;;;2112870;28;20032;-91
2022/06/10 01:18:33;;;;;;;3.20;1.08;;;13.80;89.20;;;;;;2114841;28;20055;-91
2022/06/10 01:20:05;;;;;;;3.58;0.85;;;13.80;89.20;;;;;;2107335;28;20032;-90
2022/06/10 01:21:55;;;;;;;3.08;1.00;;;13.80;89.20;;;;;;2110311;28;20028;-91
2022/06/10 01:23:26;;;;;;;3.17;0.82;;;13.80;89.30;;;;;;2107427;28;20036;-91
2022/06/10 01:25:17;;;;;;;3.33;0.93;;;13.80;89.30;;;;;;2114375;28;20024;-91
2022/06/10 01:27:48;;;;;;;3.38;0.98;;;13.80;89.40;;;;;;2106950;28;20048;-91
2022/06/10 01:28:46;;;;;;;3.05;0.90;;;13.70;89.40;;;;;;2113366;28;20119;-91
2022/06/10 01:30:18;;;;;;;3.00;1.02;;;13.70;89.50;;;;;;2113934;28;20024;-90
2022/06/10 01:32:07;;;;;;;2.05;0.77;;;13.70;89.50;;;;;;2106938;28;20044;-91
2022/06/10 01:33:41;;;;;;;2.92;0.90;;;13.70;89.60;;;;;;2088056;28;20040;-91
2022/06/10 01:35:36;;;;;;;2.65;0.93;;;13.70;89.70;;;;;;2114323;28;20035;-90
2022/06/10 01:37:12;;;;;;;1.75;0.80;;;13.70;89.70;;;;;;2108467;28;20103;-91
2022/06/10 01:38:53;;;;;;;2.70;0.90;;;13.70;89.80;;;;;;2112892;28;20044;-91
2022/06/10 01:40:26;;;;;;;2.45;0.80;;;13.70;89.80;;;;;;2107249;28;20028;-91
2022/06/10 01:42:01;;;;;;;2.80;0.93;;;13.70;89.80;;;;;;2111004;28;20040;-92
2022/06/10 01:43:43;;;;;;;2.58;0.88;;;13.70;89.90;;;;;;2108679;28;20043;-91
2022/06/10 01:45:15;;;;;;;3.75;1.15;;;13.70;89.90;;;;;;2106640;28;20044;-91
2022/06/10 01:46:37;;;;;;;2.60;1.00;;;13.70;90.00;;;;;;2110555;28;20108;-91
2022/06/10 01:48:09;;;;;;;1.50;0.85;;;13.70;90.00;;;;;;2111250;28;20024;-90
2022/06/10 01:49:54;;;;;;;2.13;1.00;;;13.70;90.00;;;;;;2110732;28;20044;-90
2022/06/10 01:51:27;;;;;;;3.60;0.95;;;13.60;90.10;;;;;;2112220;28;20401;-90
2022/06/10 01:52:54;;;;;;;2.60;0.85;;;13.60;90.10;;;;;;2110817;28;20031;-90
2022/06/10 01:54:22;;;;;;;2.33;0.93;;;13.60;90.20;;;;;;2112225;28;20047;-92
2022/06/10 01:55:47;;;;;;;2.13;0.77;;;13.60;90.30;;;;;;2109978;28;20032;-90
2022/06/10 01:57:15;;;;;;;3.25;1.10;;;13.50;90.30;;;;;;2106324;28;20043;-91
2022/06/10 01:58:51;;;;;;;3.25;1.00;;;13.50;90.40;;;;;;2104220;28;20046;-90
2022/06/10 02:00:19;;;;;;;3.50;1.00;;;13.50;90.40;;;;;;2106012;28;20032;-91
2022/06/10 02:01:43;;;;;;;1.90;0.80;;;13.50;90.50;;;;;;2107966;28;20048;-90
2022/06/10 02:03:12;;;;;;;2.67;1.00;;;13.50;90.50;;;;;;2109455;28;20031;-90
2022/06/10 02:04:41;;;;;;;3.10;0.95;;;13.50;90.60;;;;;;2105975;28;20036;-91
2022/06/10 02:06:08;;;;;;;5.57;1.20;;;13.50;90.90;;;;;;2108250;28;20039;-90
2022/06/10 02:08:02;;;;;;;2.95;0.95;;;13.50;90.60;;;;;;2108569;28;20036;-91
2022/06/10 02:09:27;;;;;;;2.30;1.00;;;13.50;90.60;;;;;;2107610;28;20522;-90
2022/06/10 02:10:56;;;;;;;1.85;0.95;;;13.50;90.70;;;;;;2106798;28;20032;-90
2022/06/10 02:12:25;;;;;;;3.28;1.00;;;13.50;90.70;;;;;;2113905;28;20039;-90
2022/06/10 02:13:54;;;;;;;1.95;0.90;;;13.50;90.70;;;;;;2113705;27;20071;-90
2022/06/10 02:15:26;;;;;;;2.47;0.80;;;13.50;90.70;;;;;;2116498;27;20040;-90
2022/06/10 02:16:48;;;;;;;2.60;1.10;;;13.50;90.80;;;;;;2115786;28;20032;-91
2022/06/10 02:18:14;;;;;;;3.90;1.08;;;13.50;90.80;;;;;;2111659;28;20044;-90
2022/06/10 02:19:46;;;;;;;2.78;1.10;;;13.50;90.80;;;;;;2109085;28;20048;-91
2022/06/10 02:21:23;;;;;;;2.35;0.80;;;13.50;90.80;;;;;;2111314;28;20028;-90
2022/06/10 02:22:45;;;;;;;2.50;0.90;;;13.50;90.90;;;;;;2109901;28;20036;-91
2022/06/10 02:24:12;;;;;;;2.83;0.90;;;13.50;90.90;;;;;;2116048;27;20044;-90
2022/06/10 02:25:38;;;;;;;2.67;1.00;;;13.50;90.90;;;;;;2109950;28;20028;-90
2022/06/10 02:27:14;;;;;;;2.95;1.23;;;13.50;90.90;;;;;;2116178;27;20036;-91
2022/06/10 02:28:50;;;;;;;2.50;1.00;;;13.50;90.90;;;;;;2107519;28;20036;-90
2022/06/10 02:30:27;;;;;;;2.50;0.93;;;13.50;90.80;;;;;;2109541;27;20066;-91
2022/06/10 02:31:53;;;;;;;3.63;0.90;;;13.50;90.80;;;;;;2109514;28;20489;-90
2022/06/10 02:33:13;;;;;;;4.50;1.65;;;13.50;90.90;;;;;;2109184;28;20092;-90
2022/06/10 02:34:33;;;;;;;2.00;0.90;;;13.50;90.90;;;;;;2112268;28;20044;-90
2022/06/10 02:36:10;;;;;;;2.90;0.90;;;13.60;90.90;;;;;;2108235;28;20040;-90
2022/06/10 02:37:44;;;;;;;2.65;1.02;;;13.60;90.90;;;;;;2107010;28;20255;-91
2022/06/10 02:39:15;;;;;;;3.10;0.80;;;13.60;90.90;;;;;;2111942;28;20036;-90
2022/06/10 02:40:37;;;;;;;2.08;0.90;;;13.60;90.90;;;;;;2109696;28;20027;-91
2022/06/10 02:42:14;;;;;;;4.55;1.27;;;13.70;90.90;;;;;;2107097;28;20119;-91
2022/06/10 02:44:03;;;;;;;3.83;0.90;;;13.70;90.90;;;;;;2107862;28;20067;-90
2022/06/10 02:45:34;;;;;;;3.33;0.90;;;13.80;90.90;;;;;;2107689;28;20067;-90
2022/06/10 02:47:13;;;;;;;2.10;0.90;;;13.80;90.90;;;;;;2108211;27;20069;-90
2022/06/10 02:49:01;;;;;;;3.88;1.27;;;13.80;90.90;;;;;;2113474;28;20027;-91
2022/06/10 02:50:20;;;;;;;1.92;0.80;;;13.80;90.80;;;;;;2113534;28;20063;-91
2022/06/10 02:51:39;;;;;;;2.25;0.85;;;13.90;90.80;;;;;;2104641;28;20048;-91
2022/06/10 02:53:00;;;;;;;1.30;0.80;;;13.90;91.10;;;;;;2101829;28;20048;-91
2022/06/10 02:54:43;;;;;;;2.78;0.98;;;14.00;90.80;;;;;;2099346;28;20060;-91
2022/06/10 02:56:18;;;;;;;2.80;0.75;;;14.00;90.80;;;;;;2123460;27;20036;-90
2022/06/10 03:01:30;;;;;;;2.05;0.93;;;14.10;90.80;;;;;;2103149;28;20538;-90
2022/06/10 03:03:10;;;;;;;2.70;1.05;;;14.10;90.70;;;;;;2111166;28;20052;-91
2022/06/10 03:05:16;;;;;;;3.35;1.10;;;14.20;90.60;;;;;;2107245;28;20036;-91
2022/06/10 03:06:44;;;;;;;3.40;1.05;;;14.20;90.60;;;;;;2096953;28;20036;-91
2022/06/10 03:08:13;;;;;;;3.80;1.10;;;14.20;90.50;;;;;;2107908;28;20031;-91
2022/06/10 03:09:58;;;;;;;3.72;1.13;;;14.30;90.60;;;;;;2112739;28;20032;-90
2022/06/10 03:11:34;;;;;;;2.83;1.00;;;14.30;90.50;;;;;;2114062;28;20512;-91
2022/06/10 03:13:19;;;;;;;3.30;1.30;;;14.30;90.50;;;;;;2115324;28;20480;-91
2022/06/10 03:14:48;;;;;;;3.28;1.00;;;14.30;90.50;;;;;;2107332;28;20044;-91
2022/06/10 03:16:18;;;;;;;3.97;1.10;;;14.40;90.50;;;;;;2113034;28;20416;-91
2022/06/10 03:17:52;;;;;;;;;;;14.40;90.50;;;;;;2112799;28;20031;-91
2022/06/10 03:19:31;;;;;;;2.30;1.15;;;14.40;90.50;;;;;;2110188;28;20376;-89
2022/06/10 03:21:09;;;;;;;1.67;0.80;;;14.40;90.40;;;;;;2101946;28;20032;-90
2022/06/10 03:23:10;;;;;;;3.33;0.90;;;14.40;90.50;;;;;;2108418;28;20040;-91
2022/06/10 03:24:42;;;;;;;3.10;0.85;;;14.40;90.40;;;;;;2112152;28;20082;-89
2022/06/10 03:26:17;;;;;;;2.22;0.82;;;14.40;90.40;;;;;;2119080;27;20075;-90
2022/06/10 03:27:47;;;;;;;4.55;0.95;;;14.40;90.40;;;;;;2110304;28;20044;-91
2022/06/10 03:29:14;;;;;;;2.30;0.70;;;14.40;90.40;;;;;;2111322;28;20501;-91
2022/06/10 03:30:37;;;;;;;3.33;0.90;;;14.50;90.40;;;;;;2112513;28;20549;-90
2022/06/10 03:32:22;;;;;;;4.68;1.05;;;14.50;90.40;;;;;;2116356;28;20533;-91
2022/06/10 03:33:53;;;;;;;3.13;1.08;;;14.60;90.40;;;;;;2110446;28;20036;-90
2022/06/10 03:35:50;;;;;;;4.85;1.02;;;14.60;90.40;;;;;;2113995;28;20047;-90
2022/06/10 03:37:11;;;;;;;3.13;0.80;;;14.60;90.40;;;;;;2112802;28;20036;-92
2022/06/10 03:38:32;;;;;;;3.90;1.38;;;14.60;90.40;;;;;;2116309;28;20055;-91
2022/06/10 03:39:54;;;;;;;3.85;0.98;;;14.60;90.40;;;;;;2113683;28;20047;-91
2022/06/10 03:41:24;;;;;;;3.63;1.33;;;14.60;90.40;;;;;;2114962;28;20043;-92
2022/06/10 03:42:49;;;;;;;3.72;0.98;;;14.60;90.40;;;;;;2116884;28;20043;-90
2022/06/10 03:44:16;;;;;;;2.28;0.70;;;14.70;90.40;;;;;;2114207;28;20027;-91
2022/06/10 03:45:49;;;;;;;3.05;1.00;;;14.70;90.40;;;;;;2111308;28;20040;-90
2022/06/10 03:47:15;;;;;;;3.78;1.00;;;14.70;90.40;;;;;;2117763;27;20043;-91
2022/06/10 03:48:38;;;;;;;2.78;0.90;;;14.70;90.40;;;;;;2112221;28;20028;-90
2022/06/10 03:50:02;;;;;;;4.63;1.17;;;14.70;90.40;;;;;;2107859;28;20048;-91
2022/06/10 03:51:22;;;;;;;3.47;1.00;;;14.70;90.40;;;;;;2110163;28;20036;-91
2022/06/10 03:52:44;;;;;;;2.58;0.80;;;14.70;90.40;;;;;;2109641;28;20498;-89
2022/06/10 03:54:04;;;;;;;2.28;0.90;;;14.70;90.40;;;;;;2110769;28;20043;-91
2022/06/10 03:55:24;;;;;;;4.40;1.00;;;14.70;90.40;;;;;;2104884;28;20702;-89
2022/06/10 03:56:44;;;;;;;3.53;1.00;;;14.70;90.40;;;;;;2106063;28;20036;-89
2022/06/10 03:58:03;;;;;;;2.88;0.90;;;14.80;90.40;;;;;;2096087;28;20040;-91
2022/06/10 03:59:23;;;;;;;2.25;0.88;;;14.80;90.30;;;;;;2096652;28;20131;-91
2022/06/10 04:00:43;;;;;;;3.38;0.93;;;14.80;90.30;;;;;;2105786;28;20032;-91
2022/06/10 04:02:03;;;;;;;2.65;1.00;;;14.80;90.30;;;;;;2101309;28;20036;-91
2022/06/10 04:03:22;;;;;;;4.03;1.10;;;14.80;90.30;;;;;;2098718;28;20445;-89
2022/06/10 04:04:43;;;;;;;3.72;1.20;;;14.80;90.30;;;;;;2097965;28;20036;-90
2022/06/10 04:06:03;;;;;;;3.25;0.88;;;14.80;90.30;;;;;;2110584;27;20511;-91
2022/06/10 04:07:23;;;;;;;2.30;0.95;;;14.80;90.40;;;;;;2109424;28;20035;-91
2022/06/10 04:08:42;;;;;;;4.88;1.10;;;14.80;90.40;;;;;;2096817;28;20143;-91
2022/06/10 04:10:02;;;;;;;3.22;1.00;;;14.80;90.50;;;;;;2100455;28;20048;-91
2022/06/10 04:11:21;;;;;;;4.57;1.25;;;14.80;90.60;;;;;;2103268;28;20032;-90
2022/06/10 04:12:41;;;;;;;4.38;1.20;;;14.80;90.60;;;;;;2092815;28;20063;-91
2022/06/10 04:14:00;;;;;;;3.47;1.10;;;14.70;90.70;;;;;;2099237;28;20506;-90
2022/06/10 04:15:20;;;;;;;1.90;0.88;;;14.70;90.70;;;;;;2102126;28;20032;-91
2022/06/10 04:16:39;;;;;;;6.25;1.33;;;14.70;90.80;;;;;;2114408;28;20043;-91
2022/06/10 04:17:58;;;;;;;2.28;0.90;;;14.70;90.90;;;;;;2095645;28;20036;-90
2022/06/10 04:19:18;;;;;;;4.43;1.15;;;14.70;91.00;;;;;;2111715;27;20051;-91
2022/06/10 04:20:38;;;;;;;2.38;0.80;;;14.70;91.00;;;;;;2107932;28;20035;-91
2022/06/10 04:21:58;;;;;;;2.92;1.02;;;14.70;91.00;;;;;;2100886;28;20119;-91
2022/06/10 04:23:17;;;;;;;3.92;1.00;;;14.70;91.10;;;;;;2090533;28;20119;-90
2022/06/10 04:24:36;;;;;;;2.90;0.80;;;14.60;91.10;;;;;;2087750;28;20045;-90
2022/06/10 04:25:56;;;;;;;2.83;1.00;;;14.70;91.20;;;;;;2094342;28;20047;-90
2022/06/10 04:27:15;;;;;;;3.75;1.10;;;14.70;91.20;;;;;;2096660;28;20048;-90
2022/06/10 04:28:34;;;;;;;3.45;1.00;;;14.70;91.20;;;;;;2112048;27;20031;-90
2022/06/10 04:29:53;;;;;;;2.97;0.82;;;14.70;91.20;;;;;;2098281;28;20518;-91
2022/06/10 04:31:13;;;;;;;2.85;0.95;;;14.70;91.20;;;;;;2110835;28;20519;-90
2022/06/10 04:32:32;;;;;;;5.20;1.08;;;14.70;91.30;;;;;;2096767;28;20045;-91
2022/06/10 04:33:52;;;;;;;3.15;0.98;;;14.70;91.30;;;;;;2105845;28;20031;-91
2022/06/10 04:35:11;;;;;;;2.53;0.88;;;14.80;91.30;;;;;;2094505;28;20133;-91
2022/06/10 04:36:31;;;;;;;6.05;1.27;;;14.80;91.40;;;;;;2083821;28;20048;-88
2022/06/10 04:37:51;;;;;;;4.00;0.90;;;14.80;91.40;;;;;;2096070;28;20040;-91
2022/06/10 04:39:11;;;;;;;3.33;1.02;;;14.80;91.40;;;;;;2095577;28;20295;-90
2022/06/10 04:40:39;;;;;;;4.85;1.10;;;14.80;91.40;;;;;;2100354;28;20032;-91
2022/06/10 04:41:59;;;;;;;2.70;0.85;;;14.80;91.40;;;;;;2110171;28;20043;-91
2022/06/10 04:43:19;;;;;;;3.13;0.90;;;14.80;91.40;;;;;;2101981;28;20417;-90
2022/06/10 04:44:38;;;;;;;3.97;1.25;;;14.80;91.50;;;;;;2103757;28;20048;-91
2022/06/10 04:45:57;;;;;;;3.97;1.20;;;14.80;91.60;;;;;;2098173;28;20040;-91
2022/06/10 04:47:17;;;;;;;3.67;1.10;;;14.80;91.60;;;;;;2096187;28;20044;-91
2022/06/10 04:48:36;;;;;;;2.80;1.02;;;14.80;91.70;;;;;;2092241;28;20036;-88
2022/06/10 04:49:59;;;;;;;3.67;1.00;;;14.70;91.80;;;;;;2084986;28;20045;-88
2022/06/10 04:51:20;;;;;;;2.55;0.98;;;14.70;91.80;;;;;;2101559;28;20040;-88
2022/06/10 04:52:40;;;;;;;2.78;0.80;;;14.70;91.90;;;;;;2104507;28;20517;-90
2022/06/10 04:54:01;;;;;;;2.47;0.90;;;14.70;91.90;;;;;;2098875;28;20490;-90
2022/06/10 04:55:20;;;;;;;4.25;1.17;;;14.70;92.00;;;;;;2109590;28;20043;-89
2022/06/10 04:56:39;;;;;;;4.85;1.30;;;14.70;92.10;;;;;;2111498;28;20463;-91
2022/06/10 04:57:59;;;;;;;3.38;1.00;;;14.70;92.20;;;;;;2100250;28;20028;-88
2022/06/10 04:59:18;;;;;;;3.10;1.10;;;14.60;92.20;;;;;;2099381;28;20048;-90
2022/06/10 05:00:43;;;;;;;2.90;0.95;;;14.60;92.30;;;;;;2098131;28;20032;-87
2022/06/10 05:02:02;;;;;;;2.55;0.90;;;14.60;92.40;;;;;;2109809;28;20489;-88
2022/06/10 05:03:21;;;;;;;2.33;0.85;;;14.60;92.40;;;;;;2108293;28;20147;-90
2022/06/10 05:04:41;;;;;;;4.22;1.20;;;14.70;92.50;;;;;;2091523;28;20053;-91
2022/06/10 05:06:00;;;;;;;3.10;1.02;;;14.60;92.50;;;;;;2085352;28;20033;-91
2022/06/10 05:07:19;;;;;;;3.75;1.10;;;14.60;92.60;;;;;;2093827;28;20123;-89
2022/06/10 05:08:38;;;;;;;2.75;1.00;;;14.60;92.60;;;;;;2093671;28;20434;-89
2022/06/10 05:09:57;;;;;;;4.70;1.25;;;14.60;92.60;;;;;;2099577;28;20040;-94
2022/06/10 05:11:17;;;;;;;5.20;1.17;;;14.70;92.70;;;;;;2095295;28;20040;-91
2022/06/10 05:12:36;;;;;;;2.70;1.10;;;14.60;92.70;;;;;;2115106;27;20043;-94
2022/06/10 05:13:55;;;;;;;3.17;1.10;;;14.70;92.80;;;;;;2094047;28;20044;-96
2022/06/10 05:15:18;;;;;;;3.25;0.93;;;14.70;92.80;;;;;;2098497;28;20028;-94
2022/06/10 05:16:37;;;;;;;3.25;1.02;;;14.70;92.80;;;;;;2098105;28;20045;-92
2022/06/10 05:17:58;;;;;;;3.38;1.10;;;14.70;92.80;;;;;;2100257;28;20032;-92
2022/06/10 05:19:18;;;;;;;3.22;1.13;;;14.80;92.90;;;;;;2109014;28;20051;-92
2022/06/10 05:20:40;;;;;;;1.65;0.90;;;14.80;92.90;;;;;;2111811;28;20362;-92
2022/06/10 05:22:00;;;;;;;4.95;1.30;;;14.80;92.90;;;;;;2109549;28;20717;-92
2022/06/10 05:23:21;;;;;;;3.83;1.10;;;14.90;92.90;;;;;;2110979;28;20494;-92
2022/06/10 05:24:42;;;;;;;2.90;1.20;;;14.90;92.90;;;;;;2116959;27;20027;-93
2022/06/10 05:26:02;;;;;;;4.03;1.10;;;14.90;92.90;;;;;;2093388;28;20044;-89
2022/06/10 05:27:21;;;;;;;2.95;0.90;;;14.90;92.80;;;;;;2114194;28;20119;-90
2022/06/10 05:28:40;;;;;;;3.75;1.00;;;15.00;92.90;;;;;;2103828;28;20036;-92
2022/06/10 05:30:00;;;;;;;5.47;1.45;;;15.00;92.90;;;;;;2103625;28;20044;-88
2022/06/10 05:31:19;;;;;;;3.65;1.10;;;15.00;92.90;;;;;;2099974;28;20048;-90
2022/06/10 05:32:38;;;;;;;4.75;1.20;;;15.10;92.90;;;;;;2104879;28;20039;-91
2022/06/10 05:35:37;;;;;;;2.40;0.93;;;15.10;92.80;;;;;;2110348;28;20044;-93
2022/06/10 05:36:57;;;;;;;3.00;1.08;;;15.10;92.80;;;;;;2106122;28;20025;-91
2022/06/10 05:38:16;;;;;;;3.38;1.27;;;15.10;92.80;;;;;;2101277;28;20096;-92
2022/06/10 05:39:35;;;;;;;2.70;1.15;;;15.20;92.80;;;;;;2094963;28;20036;-92
2022/06/10 05:42:04;;;;;;;3.13;1.00;;;15.20;92.80;;;;;;2092571;28;20044;-92
2022/06/10 05:42:34;;;;;;;3.22;1.00;;;15.20;92.80;;;;;;2100996;28;20036;-91
2022/06/10 05:43:53;;;;;;;2.40;1.00;;;15.30;92.90;;;;;;2105284;28;20044;-92
2022/06/10 05:45:13;;;;;;;4.43;1.08;;;15.30;92.90;;;;;;2103119;28;20044;-92
2022/06/10 05:46:33;;;;;;;3.08;1.00;;;15.30;92.90;;;;;;2114049;28;20032;-92
2022/06/10 05:47:58;;;;;;;2.60;1.02;;;15.40;92.80;;;;;;2095604;28;20040;-92
2022/06/10 05:49:18;;;;;;;3.15;1.00;;;15.40;92.90;;;;;;2101321;28;20052;-92
2022/06/10 05:50:40;;;;;;;2.88;0.80;;;15.40;92.80;;;;;;2096237;28;20036;-91
2022/06/10 05:52:00;;;;;;;3.17;1.13;;;15.40;92.90;;;;;;2109363;27;20039;-92
2022/06/10 05:53:20;;;;;;;3.47;1.30;;;15.40;92.90;;;;;;2103771;28;20052;-91
2022/06/10 05:54:43;;;;;;;5.03;1.35;;;15.40;92.90;;;;;;2103458;28;20126;-91
2022/06/10 05:56:02;;;;;;;2.53;1.13;;;15.40;93.10;;;;;;2103506;28;20115;-90
2022/06/10 05:57:22;;;;;;;4.40;1.25;;;15.40;92.90;;;;;;2107707;28;20051;-91
2022/06/10 05:58:41;;;;;;;3.40;1.00;;;15.50;92.90;;;;;;2113127;28;20483;-91
2022/06/10 06:00:01;;;;;;;4.28;1.00;;;15.50;92.90;;;;;;2088872;28;20120;-91
2022/06/10 06:01:21;;;;;;;;;;;15.50;93.00;;;;;;2105629;28;20039;-90
2022/06/10 06:02:41;;;;;;;2.15;0.80;;;15.50;92.90;;;;;;2108765;28;19915;-90
2022/06/10 06:04:01;;;;;;;2.65;1.10;;;15.50;92.80;;;;;;2103842;28;20044;-90
2022/06/10 06:05:21;;;;;;;3.72;1.00;;;15.60;92.80;;;;;;2089678;28;20086;-92
2022/06/10 06:06:41;;;;;;;2.35;0.88;;;15.60;92.80;;;;;;2093622;28;20116;-92
2022/06/10 06:08:01;;;;;;;2.45;0.90;;;15.70;92.80;;;;;;2095683;28;20044;-91
2022/06/10 06:09:20;;;;;;;3.72;1.20;;;15.70;92.80;;;;;;2084814;28;20056;-92
2022/06/10 06:10:40;;;;;;;2.47;1.00;;;15.70;92.80;;;;;;2094668;28;20123;-91
2022/06/10 06:11:59;;;;;;;6.07;1.20;;;15.80;92.80;;;;;;2098993;28;20047;-91
2022/06/10 06:13:18;;;;;;;3.15;1.10;;;15.80;92.80;;;;;;2101620;28;20036;-92
2022/06/10 06:14:37;;;;;;;3.40;1.00;;;15.80;92.80;;;;;;2099411;28;20056;-91
2022/06/10 06:15:58;;;;;;;2.85;0.90;;;15.80;92.80;;;;;;2100639;28;20040;-92
2022/06/10 06:17:19;;;;;;;2.38;0.98;;;15.80;92.80;;;;;;2113965;28;20448;-92
2022/06/10 06:18:39;;;;;;;2.42;0.80;;;15.90;92.80;;;;;;2109921;28;20050;-91
2022/06/10 06:19:58;;;;;;;4.90;1.10;;;15.90;92.70;;;;;;2101824;28;20037;-91
2022/06/10 06:21:18;;;;;;;3.88;1.35;;;16.00;92.70;;;;;;2098680;28;20040;-91
2022/06/10 06:22:38;;;;;;;6.88;1.20;;;16.00;92.70;;;;;;2105014;28;20068;-92
2022/06/10 06:23:58;;;;;;;1.73;0.75;;;16.10;92.70;;;;;;2093276;28;20033;-92
2022/06/10 06:25:19;;;;;;;2.63;0.85;;;16.10;92.60;;;;;;2096541;28;20445;-92
2022/06/10 06:26:38;;;;;;;1.77;0.80;;;16.20;92.60;;;;;;2105015;28;20044;-92
2022/06/10 06:27:58;;;;;;;2.40;0.75;;;16.20;92.60;;;;;;2107886;28;20036;-92
2022/06/10 06:29:19;;;;;;;2.70;0.73;;;16.30;92.60;;;;;;2106781;28;20056;-92
2022/06/10 06:30:38;;;;;;;2.90;1.05;;;16.40;92.50;;;;;;2113006;28;20040;-92
2022/06/10 06:31:58;;;;;;;4.88;1.13;;;16.40;92.50;;;;;;2095172;28;20044;-92
2022/06/10 06:33:17;;;;;;;3.97;1.17;;;16.40;92.40;;;;;;2104891;28;20043;-91
2022/06/10 06:34:38;;;;;;;3.28;0.98;;;16.50;92.50;;;;;;2104291;28;20040;-92
2022/06/10 06:35:57;;;;;;;;;;;16.50;92.40;;;;;;2099742;28;20045;-91
2022/06/10 06:37:17;;;;;;;2.83;1.00;;;16.50;92.40;;;;;;2114939;27;19912;-92
2022/06/10 06:38:37;;;;;;;2.58;1.42;;;16.50;92.40;;;;;;2100942;28;20048;-92
2022/06/10 06:39:56;;;;;;;4.07;1.13;;;16.50;92.40;;;;;;2098865;28;20127;-92
2022/06/10 06:41:16;;;;;;;2.97;0.82;;;16.50;92.40;;;;;;2092706;28;20037;-92
2022/06/10 06:42:36;;;;;;;;;;;16.50;92.40;;;;;;2101981;28;20036;-92
2022/06/10 06:43:55;;;;;;;2.65;0.85;;;16.50;92.30;;;;;;2110417;28;19915;-92
2022/06/10 06:45:17;;;;;;;2.25;0.90;;;16.50;92.30;;;;;;2099202;28;20044;-92
2022/06/10 06:46:39;;;;;;;2.78;0.90;;;16.50;92.30;;;;;;2105416;28;20075;-92
2022/06/10 06:47:58;;;;;;;3.72;1.30;;;16.50;92.30;;;;;;2110018;28;20040;-91
2022/06/10 06:49:21;;;;;;;3.55;1.00;;;16.50;92.30;;;;;;2102813;28;20489;-92
2022/06/10 06:50:46;;;;;;;4.55;1.20;;;16.60;92.20;;;;;;2110024;28;20032;-92
2022/06/10 06:52:08;;;;;;;3.45;1.00;;;16.60;92.20;;;;;;2107892;28;20052;-92
2022/06/10 06:53:27;;;;;;;4.10;0.93;;;16.60;92.10;;;;;;2097266;28;20071;-91
2022/06/10 06:54:47;;;;;;;4.20;1.20;;;16.60;92.40;;;;;;2096556;28;20052;-91
2022/06/10 06:56:07;;;;;;;4.20;1.02;;;16.60;92.10;;;;;;2087037;28;21204;-92
2022/06/10 06:57:27;;;;;;;2.83;0.85;;;16.60;92.10;;;;;;2095228;28;20056;-92
2022/06/10 06:58:46;;;;;;;4.10;1.17;;;16.60;92.10;;;;;;2093218;28;20044;-91
2022/06/10 07:00:06;;;;;;;4.85;1.33;;;16.70;92.10;;;;;;2100702;28;20498;-92
2022/06/10 07:01:25;;;;;;;4.03;1.30;;;16.70;92.10;;;;;;2097182;28;20040;-91
2022/06/10 07:02:44;;;;;;;3.90;1.10;;;16.70;92.30;;;;;;2113550;27;20040;-92
2022/06/10 07:04:05;;;;;;;4.68;1.20;;;16.70;92.10;;;;;;2098697;28;20200;-92
2022/06/10 07:05:24;;;;;;;2.55;1.00;;;16.70;92.00;;;;;;2105597;28;20501;-91
2022/06/10 07:06:44;;;;;;;2.83;1.10;;;16.70;92.00;;;;;;2100975;28;20048;-91
2022/06/10 07:08:04;;;;;;;5.63;1.63;;;16.70;92.00;;;;;;2102395;28;20359;-91
2022/06/10 07:09:23;;;;;;;5.10;1.00;;;16.80;92.00;;;;;;2098767;28;20123;-91
2022/06/10 07:10:43;;;;;;;4.07;1.10;;;16.80;91.90;;;;;;2083050;28;20284;-92
2022/06/10 07:12:03;;;;;;;5.40;1.48;;;16.80;91.90;;;;;;2093214;28;20099;-92
2022/06/10 07:13:22;;;;;;;3.45;1.08;;;16.80;91.90;;;;;;2089289;28;20037;-91
2022/06/10 07:14:42;;;;;;;4.78;1.30;;;16.80;91.90;;;;;;2093972;28;20080;-92
2022/06/10 07:16:01;;;;;;;4.22;1.42;;;16.80;91.90;;;;;;2086600;28;20033;-92
2022/06/10 07:17:20;;;;;;;3.80;1.10;;;16.80;91.90;;;;;;2103019;27;20032;-92
2022/06/10 07:18:40;;;;;;;2.85;1.30;;;16.70;91.90;;;;;;2094667;28;20037;-91
2022/06/10 07:20:00;;;;;;;3.97;1.20;;;16.70;91.90;;;;;;2087757;28;20045;-92
2022/06/10 07:21:19;;;;;;;4.30;1.20;;;16.70;91.90;;;;;;2103513;28;20032;-92
2022/06/10 07:22:39;;;;;;;3.72;1.17;;;16.70;91.90;;;;;;2100157;28;20045;-91
2022/06/10 07:23:58;;;;;;;2.65;1.08;;;16.70;91.90;;;;;;2105071;28;20044;-92
2022/06/10 07:25:18;;;;;;;2.90;0.90;;;16.70;91.90;;;;;;2095241;28;20210;-92
2022/06/10 07:26:37;;;;;;;4.68;1.10;;;16.70;91.90;;;;;;2098305;28;20036;-91